Time,TemperatureF,DewpointF,PressureIn,WindDirection,WindDirectionDegrees,WindSpeedMPH,WindSpeedGustMPH,Humidity,HourlyPrecipIn,Conditions,Clouds,dailyrainin,SoftwareType,DateUTC
2013-08-11 00:04:00,72.7,72.0,30.09,NW,312,0.0,-999.0,96,-99.99,,,0.00,weatherlink.com 1.10,2013-08-11 04:04:00,
2013-08-11 00:18:00,72.4,71.0,30.09,NW,312,0.0,-999.0,95,-99.99,,,0.00,weatherlink.com 1.10,2013-08-11 04:18:00,
2013-08-11 00:33:00,72.3,71.0,30.09,NW,312,0.0,-999.0,96,-99.99,,,0.00,weatherlink.com 1.10,2013-08-11 04:33:00,
2013-08-11 00:48:00,72.3,71.0,30.09,NW,312,0.0,-999.0,96,-99.99,,,0.00,weatherlink.com 1.10,2013-08-11 04:48:00,
2013-08-11 01:03:00,72.3,71.0,30.09,NW,312,0.0,-999.0,96,-99.99,,,0.00,weatherlink.com 1.10,2013-08-11 05:03:00,
2013-08-11 01:18:00,72.1,71.0,30.09,NW,313,0.0,-999.0,96,-99.99,,,0.00,weatherlink.com 1.10,2013-08-11 05:18:00,
2013-08-11 01:33:00,72.0,71.0,30.09,NW,312,0.0,-999.0,96,-99.99,,,0.00,weatherlink.com 1.10,2013-08-11 05:33:00,
2013-08-11 01:48:00,71.9,71.0,30.09,NW,312,0.0,-999.0,96,-99.99,,,0.00,weatherlink.com 1.10,2013-08-11 05:48:00,
2013-08-11 02:03:00,71.9,71.0,30.09,NW,312,0.0,-999.0,96,-99.99,,,0.00,weatherlink.com 1.10,2013-08-11 06:03:00,
2013-08-11 02:18:00,71.9,71.0,30.09,NW,313,0.0,-999.0,96,-99.99,,,0.00,weatherlink.com 1.10,2013-08-11 06:18:00,
2013-08-11 02:33:00,71.8,71.0,30.09,NW,312,0.0,-999.0,96,-99.99,,,0.00,weatherlink.com 1.10,2013-08-11 06:33:00,
2013-08-11 02:48:00,71.7,71.0,30.09,NW,312,0.0,-999.0,96,-99.99,,,0.00,weatherlink.com 1.10,2013-08-11 06:48:00,
2013-08-11 03:18:00,71.6,70.0,30.09,NW,312,0.0,-999.0,96,-99.99,,,0.00,weatherlink.com 1.10,2013-08-11 07:18:00,
2013-08-11 03:33:00,71.6,70.0,30.09,NW,312,0.0,-999.0,96,-99.99,,,0.00,weatherlink.com 1.10,2013-08-11 07:33:00,
2013-08-11 03:48:00,71.6,70.0,30.09,NW,312,0.0,-999.0,96,-99.99,,,0.00,weatherlink.com 1.10,2013-08-11 07:48:00,
2013-08-11 04:03:00,71.6,70.0,30.09,NW,313,0.0,-999.0,96,-99.99,,,0.00,weatherlink.com 1.10,2013-08-11 08:03:00,
2013-08-11 04:18:00,71.3,70.0,30.09,NW,312,0.0,-999.0,96,-99.99,,,0.00,weatherlink.com 1.10,2013-08-11 08:18:00,
2013-08-11 04:33:00,71.2,70.0,30.09,NW,312,0.0,-999.0,96,-99.99,,,0.00,weatherlink.com 1.10,2013-08-11 08:33:00,
2013-08-11 04:48:00,71.3,70.0,30.09,NW,312,0.0,-999.0,96,-99.99,,,0.00,weatherlink.com 1.10,2013-08-11 08:48:00,
2013-08-11 05:03:00,71.2,70.0,30.09,NW,312,0.0,-999.0,96,-99.99,,,0.00,weatherlink.com 1.10,2013-08-11 09:03:00,
2013-08-11 05:18:00,71.0,70.0,30.09,NW,313,0.0,-999.0,96,-99.99,,,0.00,weatherlink.com 1.10,2013-08-11 09:18:00,
2013-08-11 05:33:00,71.1,70.0,30.09,NW,312,0.0,-999.0,96,-99.99,,,0.00,weatherlink.com 1.10,2013-08-11 09:33:00,
2013-08-11 05:48:00,71.1,70.0,30.09,NW,313,0.0,-999.0,96,-99.99,,,0.00,weatherlink.com 1.10,2013-08-11 09:48:00,
2013-08-11 06:03:00,71.1,70.0,30.09,NW,312,0.0,-999.0,96,-99.99,,,0.00,weatherlink.com 1.10,2013-08-11 10:03:00,
2013-08-11 06:33:00,71.3,70.0,30.09,NW,312,0.0,-999.0,96,-99.99,,,0.00,weatherlink.com 1.10,2013-08-11 10:33:00,
2013-08-11 06:48:00,71.2,70.0,30.09,NW,312,0.0,-999.0,96,-99.99,,,0.00,weatherlink.com 1.10,2013-08-11 10:48:00,
2013-08-11 07:03:00,71.2,70.0,30.09,NW,312,0.0,-999.0,96,-99.99,,,0.00,weatherlink.com 1.10,2013-08-11 11:03:00,
2013-08-11 07:18:00,71.2,70.0,30.10,NW,312,0.0,-999.0,96,-99.99,,,0.00,weatherlink.com 1.10,2013-08-11 11:18:00,
2013-08-11 07:33:00,71.2,70.0,30.10,NW,312,0.0,-999.0,96,-99.99,,,0.00,weatherlink.com 1.10,2013-08-11 11:33:00,
2013-08-11 07:48:00,71.2,70.0,30.10,NW,312,0.0,-999.0,96,-99.99,,,0.00,weatherlink.com 1.10,2013-08-11 11:48:00,
2013-08-11 08:33:00,72.2,71.0,30.12,NW,309,0.0,-999.0,96,-99.99,,,0.00,weatherlink.com 1.10,2013-08-11 12:33:00,
2013-08-11 08:48:00,72.4,71.0,30.12,NW,309,0.0,-999.0,96,-99.99,,,0.00,weatherlink.com 1.10,2013-08-11 12:48:00,
2013-08-11 09:03:00,72.4,71.0,30.12,NW,309,0.0,-999.0,96,-99.99,,,0.00,weatherlink.com 1.10,2013-08-11 13:03:00,
2013-08-11 09:18:00,73.7,73.0,30.12,NW,309,0.0,-999.0,97,-99.99,,,0.00,weatherlink.com 1.10,2013-08-11 13:18:00,
2013-08-11 09:33:00,74.4,74.0,30.12,NW,309,0.0,-999.0,97,-99.99,,,0.00,weatherlink.com 1.10,2013-08-11 13:33:00,
2013-08-11 09:48:00,74.8,74.0,30.11,NW,309,0.0,-999.0,97,-99.99,,,0.00,weatherlink.com 1.10,2013-08-11 13:48:00,
2013-08-11 10:03:00,74.8,74.0,30.11,NW,309,2.0,-999.0,97,-99.99,,,0.00,weatherlink.com 1.10,2013-08-11 14:03:00,
2013-08-11 10:18:00,76.3,75.0,30.11,NW,309,0.0,-999.0,96,-99.99,,,0.00,weatherlink.com 1.10,2013-08-11 14:18:00,
2013-08-11 10:33:00,77.1,75.0,30.11,SSW,206,0.0,-999.0,94,-99.99,,,0.00,weatherlink.com 1.10,2013-08-11 14:33:00,
2013-08-11 11:03:00,77.7,75.0,30.11,SSW,202,0.0,-999.0,90,-99.99,,,0.00,weatherlink.com 1.10,2013-08-11 15:03:00,
2013-08-11 11:33:00,78.7,75.0,30.11,WSW,254,6.0,-999.0,87,-99.99,,,0.00,weatherlink.com 1.10,2013-08-11 15:33:00,
2013-08-11 11:48:00,78.5,74.0,30.11,SW,236,10.0,-999.0,87,-99.99,,,0.00,weatherlink.com 1.10,2013-08-11 15:48:00,
2013-08-11 12:03:00,78.4,74.0,30.10,WSW,252,5.0,-999.0,87,-99.99,,,0.01,weatherlink.com 1.10,2013-08-11 16:03:00,
2013-08-11 12:18:00,77.2,75.0,30.11,WNW,286,3.0,-999.0,92,-99.99,,,0.05,weatherlink.com 1.10,2013-08-11 16:18:00,
2013-08-11 12:33:00,76.2,74.0,30.10,NW,322,2.0,-999.0,91,-99.99,,,0.10,weatherlink.com 1.10,2013-08-11 16:33:00,
2013-08-11 12:48:00,75.5,73.0,30.10,NW,315,3.0,-999.0,92,-99.99,,,0.11,weatherlink.com 1.10,2013-08-11 16:48:00,
2013-08-11 13:03:00,75.6,74.0,30.10,NW,315,3.0,-999.0,93,-99.99,,,0.11,weatherlink.com 1.10,2013-08-11 17:03:00,
2013-08-11 13:18:00,77.4,75.0,30.10,NW,324,0.0,-999.0,92,-99.99,,,0.11,weatherlink.com 1.10,2013-08-11 17:18:00,
2013-08-11 13:33:00,76.2,74.0,30.10,SW,228,4.0,-999.0,91,-99.99,,,0.14,weatherlink.com 1.10,2013-08-11 17:33:00,
2013-08-11 13:48:00,75.4,73.0,30.09,WSW,248,3.0,-999.0,92,-99.99,,,0.18,weatherlink.com 1.10,2013-08-11 17:48:00,
2013-08-11 14:03:00,75.4,73.0,30.09,WSW,247,4.0,-999.0,92,-99.99,,,0.18,weatherlink.com 1.10,2013-08-11 18:03:00,
2013-08-11 14:18:00,76.9,75.0,30.09,WSW,247,0.0,-999.0,94,-99.99,,,0.18,weatherlink.com 1.10,2013-08-11 18:18:00,
2013-08-11 14:33:00,77.7,75.0,30.08,WSW,246,0.0,-999.0,91,-99.99,,,0.18,weatherlink.com 1.10,2013-08-11 18:33:00,
2013-08-11 14:48:00,79.8,76.0,30.08,WSW,257,5.0,-999.0,88,-99.99,,,0.18,weatherlink.com 1.10,2013-08-11 18:48:00,
2013-08-11 15:04:00,80.1,76.0,30.08,WSW,258,3.0,-999.0,86,-99.99,,,0.18,weatherlink.com 1.10,2013-08-11 19:04:00,
2013-08-11 15:18:00,83.1,76.0,30.07,NW,307,5.0,-999.0,79,-99.99,,,0.18,weatherlink.com 1.10,2013-08-11 19:18:00,
2013-08-11 15:48:00,84.1,75.0,30.06,WNW,289,9.0,-999.0,74,-99.99,,,0.18,weatherlink.com 1.10,2013-08-11 19:48:00,
2013-08-11 16:19:00,84.0,75.0,30.05,NW,306,1.0,-999.0,75,-99.99,,,0.18,weatherlink.com 1.10,2013-08-11 20:19:00,
2013-08-11 16:34:00,84.1,77.0,30.06,West,263,3.0,-999.0,78,-99.99,,,0.18,weatherlink.com 1.10,2013-08-11 20:34:00,
2013-08-11 16:49:00,84.1,76.0,30.05,WNW,285,3.0,-999.0,76,-99.99,,,0.18,weatherlink.com 1.10,2013-08-11 20:49:00,
2013-08-11 17:04:00,83.9,75.0,30.05,WNW,292,6.0,-999.0,74,-99.99,,,0.18,weatherlink.com 1.10,2013-08-11 21:04:00,
2013-08-11 17:19:00,84.5,75.0,30.05,West,279,5.0,-999.0,74,-99.99,,,0.18,weatherlink.com 1.10,2013-08-11 21:19:00,
2013-08-11 18:04:00,84.8,74.0,30.05,WNW,284,4.0,-999.0,69,-99.99,,,0.18,weatherlink.com 1.10,2013-08-11 22:04:00,
2013-08-11 18:19:00,83.1,75.0,30.05,NW,321,0.0,-999.0,76,-99.99,,,0.18,weatherlink.com 1.10,2013-08-11 22:19:00,
2013-08-11 18:34:00,83.2,76.0,30.05,NW,321,0.0,-999.0,79,-99.99,,,0.18,weatherlink.com 1.10,2013-08-11 22:34:00,
2013-08-11 18:49:00,83.4,77.0,30.05,NW,321,0.0,-999.0,80,-99.99,,,0.18,weatherlink.com 1.10,2013-08-11 22:49:00,
2013-08-11 19:04:00,83.3,75.0,30.05,NW,321,0.0,-999.0,77,-99.99,,,0.18,weatherlink.com 1.10,2013-08-11 23:04:00,
2013-08-11 19:19:00,83.4,78.0,30.05,NW,321,0.0,-999.0,84,-99.99,,,0.18,weatherlink.com 1.10,2013-08-11 23:19:00,
2013-08-11 19:34:00,83.5,78.0,30.06,NW,321,0.0,-999.0,83,-99.99,,,0.18,weatherlink.com 1.10,2013-08-11 23:34:00,
2013-08-11 19:49:00,81.2,76.0,30.06,NW,321,0.0,-999.0,84,-99.99,,,0.18,weatherlink.com 1.10,2013-08-11 23:49:00,
2013-08-11 20:19:00,78.5,74.0,30.07,NW,321,0.0,-999.0,87,-99.99,,,0.18,weatherlink.com 1.10,2013-08-12 00:19:00,
2013-08-11 20:34:00,77.6,75.0,30.07,NW,321,0.0,-999.0,90,-99.99,,,0.18,weatherlink.com 1.10,2013-08-12 00:34:00,
2013-08-11 20:49:00,77.1,74.0,30.07,NW,321,0.0,-999.0,90,-99.99,,,0.18,weatherlink.com 1.10,2013-08-12 00:49:00,
2013-08-11 21:19:00,76.1,74.0,30.07,NW,321,0.0,-999.0,92,-99.99,,,0.18,weatherlink.com 1.10,2013-08-12 01:19:00,
2013-08-11 21:34:00,75.7,73.0,30.09,NW,321,0.0,-999.0,92,-99.99,,,0.18,weatherlink.com 1.10,2013-08-12 01:34:00,
2013-08-11 21:49:00,75.3,73.0,30.09,NW,321,0.0,-999.0,92,-99.99,,,0.18,weatherlink.com 1.10,2013-08-12 01:49:00,
2013-08-11 22:05:00,75.3,73.0,30.09,NW,321,0.0,-999.0,92,-99.99,,,0.18,weatherlink.com 1.10,2013-08-12 02:05:00,
2013-08-11 22:19:00,74.5,72.0,30.09,NW,321,0.0,-999.0,93,-99.99,,,0.18,weatherlink.com 1.10,2013-08-12 02:19:00,
2013-08-11 22:34:00,74.2,72.0,30.09,NW,321,0.0,-999.0,93,-99.99,,,0.18,weatherlink.com 1.10,2013-08-12 02:34:00,
2013-08-11 23:04:00,73.9,72.0,30.09,NW,321,0.0,-999.0,94,-99.99,,,0.18,weatherlink.com 1.10,2013-08-12 03:04:00,
2013-08-11 23:19:00,73.7,72.0,30.09,NW,321,0.0,-999.0,94,-99.99,,,0.18,weatherlink.com 1.10,2013-08-12 03:19:00,
2013-08-11 23:34:00,73.5,72.0,30.09,NW,321,0.0,-999.0,94,-99.99,,,0.18,weatherlink.com 1.10,2013-08-12 03:34:00,
2013-08-11 23:49:00,73.4,72.0,30.09,NW,321,0.0,-999.0,94,-99.99,,,0.18,weatherlink.com 1.10,2013-08-12 03:49:00,